Time;durP1;ratioP1;P1;durP2;ratioP2;P2;SDS_P1;SDS_P2;PMS_P1;PMS_P2;Temp;Humidity;BMP_temperature;BMP_pressure;BME280_temperature;BME280_humidity;BME280_pressure;Samples;Min_cycle;Max_cycle;Signal;HPM_P1;HPM_P2
2022/10/19 00:02:18;;;;;;;24.85;15.13;;;26.60;99.90;;;;;;5033384;28;20029;-63
2022/10/19 00:04:45;;;;;;;24.65;14.43;;;26.60;99.90;;;;;;5033489;28;20022;-63
2022/10/19 00:07:11;;;;;;;25.58;14.02;;;26.60;99.90;;;;;;5016501;28;20022;-63
2022/10/19 00:09:38;;;;;;;23.42;15.45;;;26.60;99.90;;;;;;5013720;28;20052;-62
2022/10/19 00:12:04;;;;;;;18.55;11.80;;;26.60;99.90;;;;;;5013384;28;20018;-63
2022/10/19 00:14:31;;;;;;;18.95;11.82;;;26.50;99.90;;;;;;5013676;28;20049;-63
2022/10/19 00:16:57;;;;;;;18.38;11.25;;;26.50;99.90;;;;;;5013411;28;20124;-62
2022/10/19 00:19:26;;;;;;;25.67;16.65;;;26.50;99.90;;;;;;5020344;28;20022;-63
2022/10/19 00:21:53;;;;;;;19.15;13.45;;;26.60;99.90;;;;;;5033003;28;20025;-63
2022/10/19 00:24:20;;;;;;;21.10;12.77;;;26.60;99.90;;;;;;5024913;28;20033;-63
2022/10/19 00:26:46;;;;;;;26.23;17.55;;;26.60;99.90;;;;;;5019663;28;20100;-63
2022/10/19 00:29:14;;;;;;;14.57;10.77;;;26.60;99.90;;;;;;5013498;28;20364;-62
2022/10/19 00:31:41;;;;;;;19.30;10.15;;;26.70;99.90;;;;;;5013305;28;20390;-62
2022/10/19 00:34:07;;;;;;;18.10;9.60;;;26.70;99.90;;;;;;5012996;28;20041;-63
2022/10/19 00:36:37;;;;;;;13.60;10.30;;;26.70;99.90;;;;;;5013355;28;20046;-63
2022/10/19 00:39:05;;;;;;;18.20;9.45;;;26.80;99.90;;;;;;5013435;28;20441;-63
2022/10/19 00:41:34;;;;;;;21.63;16.48;;;26.70;99.90;;;;;;5013175;28;20077;-63
2022/10/19 00:44:03;;;;;;;15.02;9.60;;;26.70;99.90;;;;;;4995461;28;20389;-62
2022/10/19 00:46:34;;;;;;;16.77;9.98;;;26.80;99.90;;;;;;5015034;28;20389;-62
2022/10/19 00:49:06;;;;;;;15.13;9.85;;;26.90;99.90;;;;;;5016933;28;20113;-63
2022/10/19 00:51:35;;;;;;;15.55;9.23;;;27.00;99.90;;;;;;5017057;28;20018;-62
2022/10/19 00:54:05;;;;;;;14.85;9.75;;;27.00;99.90;;;;;;5016755;28;20038;-63
2022/10/19 00:56:32;;;;;;;15.55;10.52;;;27.00;99.90;;;;;;5016808;28;20026;-62
2022/10/19 00:59:01;;;;;;;15.13;10.10;;;27.00;99.90;;;;;;5016848;28;20502;-62
2022/10/19 01:01:28;;;;;;;16.00;10.10;;;27.10;99.90;;;;;;5016714;28;20101;-63
2022/10/19 01:03:55;;;;;;;15.20;8.85;;;27.10;99.90;;;;;;5016712;28;20050;-63
2022/10/19 01:06:23;;;;;;;11.60;8.80;;;27.10;99.90;;;;;;5016844;28;20026;-62
2022/10/19 01:08:50;;;;;;;16.33;8.77;;;27.30;99.90;;;;;;5016826;28;20494;-63
2022/10/19 01:11:21;;;;;;;17.60;8.90;;;27.40;99.90;;;;;;5016709;28;20022;-64
2022/10/19 01:13:49;;;;;;;12.23;8.27;;;27.50;99.90;;;;;;5016488;28;20084;-62
2022/10/19 01:16:44;;;;;;;16.13;9.25;;;27.60;99.90;;;;;;5016445;28;20037;-63
2022/10/19 01:19:21;;;;;;;21.75;10.48;;;27.60;99.90;;;;;;5014498;28;20037;-62
2022/10/19 01:21:59;;;;;;;18.73;9.32;;;27.70;99.90;;;;;;5016512;28;20037;-62
2022/10/19 01:24:29;;;;;;;13.45;8.93;;;27.80;99.90;;;;;;5016470;28;20022;-62
2022/10/19 01:27:00;;;;;;;30.02;18.15;;;27.90;99.90;;;;;;5016316;28;20024;-61
2022/10/19 01:29:40;;;;;;;16.02;10.50;;;27.90;99.90;;;;;;5016322;28;20101;-61
2022/10/19 01:32:15;;;;;;;14.00;8.02;;;28.00;99.90;;;;;;5016236;28;20048;-62
2022/10/19 01:34:50;;;;;;;13.55;7.93;;;28.20;99.90;;;;;;5016171;28;20036;-61
2022/10/19 01:37:27;;;;;;;10.00;8.23;;;28.30;99.90;;;;;;5016164;28;20543;-60
2022/10/19 01:40:16;;;;;;;14.05;8.20;;;28.30;99.90;;;;;;5016009;28;20018;-60
2022/10/19 01:43:03;;;;;;;18.00;9.93;;;28.40;99.90;;;;;;5006413;28;20041;-56
2022/10/19 01:45:39;;;;;;;11.88;7.65;;;28.50;99.90;;;;;;4966267;28;20042;-60
2022/10/19 01:48:29;;;;;;;14.93;8.77;;;28.50;99.90;;;;;;5016239;28;20014;-61
2022/10/19 01:51:14;;;;;;;14.20;8.13;;;28.50;99.90;;;;;;5008857;28;20380;-60
2022/10/19 01:53:45;;;;;;;17.92;8.35;;;28.50;99.90;;;;;;5015786;28;20022;-57
2022/10/19 01:56:13;;;;;;;13.60;8.57;;;28.50;99.90;;;;;;5015699;28;20025;-60
2022/10/19 01:58:43;;;;;;;13.02;8.65;;;28.60;99.90;;;;;;5015060;28;20493;-57
2022/10/19 02:01:12;;;;;;;13.25;8.68;;;28.60;99.90;;;;;;5016087;28;20378;-61
2022/10/19 02:03:39;;;;;;;21.25;8.32;;;28.50;99.90;;;;;;5015469;28;20034;-58
2022/10/19 02:06:08;;;;;;;17.95;8.60;;;28.50;99.90;;;;;;5015805;28;20037;-57
2022/10/19 02:08:53;;;;;;;11.75;8.07;;;28.50;99.90;;;;;;5015588;28;20526;-61
2022/10/19 02:11:21;;;;;;;17.48;7.30;;;28.50;99.90;;;;;;5015185;28;20033;-59
2022/10/19 02:13:55;;;;;;;15.75;7.47;;;28.50;99.90;;;;;;5015183;28;20422;-59
2022/10/19 02:16:35;;;;;;;16.58;8.23;;;28.60;99.90;;;;;;5015144;28;20030;-61
2022/10/19 02:19:04;;;;;;;12.60;8.93;;;28.60;99.90;;;;;;5015215;28;20014;-60
2022/10/19 02:21:31;;;;;;;11.00;7.40;;;28.60;99.90;;;;;;5015076;28;20022;-58
2022/10/19 02:23:57;;;;;;;12.15;6.97;;;28.60;99.90;;;;;;5015234;28;20080;-59
2022/10/19 02:26:24;;;;;;;9.65;7.07;;;28.60;99.90;;;;;;5015192;28;20025;-59
2022/10/19 02:28:53;;;;;;;11.38;7.22;;;28.60;99.90;;;;;;5015116;28;20482;-60
2022/10/19 02:31:19;;;;;;;12.43;7.97;;;28.60;99.90;;;;;;5014997;28;20434;-60
2022/10/19 02:33:46;;;;;;;13.68;7.97;;;28.60;99.90;;;;;;5014889;28;20386;-60
2022/10/19 02:36:13;;;;;;;15.23;7.90;;;28.70;99.90;;;;;;5014861;28;20026;-60
2022/10/19 02:38:40;;;;;;;15.13;8.77;;;28.80;99.90;;;;;;5014941;28;20014;-58
2022/10/19 02:41:18;;;;;;;15.30;10.13;;;29.00;99.90;;;;;;5014884;28;20018;-60
2022/10/19 02:43:48;;;;;;;16.45;10.40;;;29.20;99.90;;;;;;5014494;28;20057;-61
2022/10/19 02:46:21;;;;;;;16.05;9.45;;;29.30;99.90;;;;;;5014772;28;20095;-61
2022/10/19 02:48:50;;;;;;;21.27;12.15;;;29.30;99.90;;;;;;5014594;28;20434;-59
2022/10/19 02:51:25;;;;;;;17.15;9.88;;;29.50;99.90;;;;;;5014714;28;20084;-58
2022/10/19 02:53:52;;;;;;;19.13;11.13;;;29.60;99.90;;;;;;5014624;28;20021;-59
2022/10/19 02:56:18;;;;;;;21.20;12.75;;;29.70;99.90;;;;;;5014422;28;20390;-60
2022/10/19 02:58:45;;;;;;;29.27;14.63;;;29.70;99.90;;;;;;5014584;28;20018;-59
2022/10/19 03:01:11;;;;;;;25.45;14.70;;;29.70;99.90;;;;;;5014508;28;20018;-60
2022/10/19 03:03:38;;;;;;;25.20;14.93;;;29.70;99.90;;;;;;5014351;28;20029;-64
2022/10/19 03:06:04;;;;;;;29.75;15.55;;;29.80;99.90;;;;;;5014521;28;20054;-59
2022/10/19 03:08:31;;;;;;;28.02;15.63;;;29.90;99.90;;;;;;5014449;28;20108;-60
2022/10/19 03:10:59;;;;;;;24.60;14.65;;;30.00;99.90;;;;;;5013469;28;20037;-61
2022/10/19 03:13:25;;;;;;;23.83;15.13;;;30.10;99.90;;;;;;5014188;28;20071;-63
2022/10/19 03:15:52;;;;;;;27.45;15.95;;;30.30;99.90;;;;;;5021317;28;20033;-57
2022/10/19 03:18:18;;;;;;;26.95;16.92;;;30.40;99.90;;;;;;5023477;28;20025;-63
2022/10/19 03:20:45;;;;;;;30.52;17.83;;;30.50;99.90;;;;;;5012710;28;20018;-57
2022/10/19 03:23:11;;;;;;;33.35;15.85;;;30.70;99.90;;;;;;5014065;28;20544;-61
2022/10/19 03:25:38;;;;;;;27.67;17.85;;;30.60;99.90;;;;;;5013931;28;20046;-62
2022/10/19 03:28:04;;;;;;;29.08;16.30;;;30.60;99.90;;;;;;5014100;28;20032;-64
2022/10/19 03:30:31;;;;;;;26.88;15.20;;;30.80;99.90;;;;;;5014049;28;20108;-63
2022/10/19 03:32:57;;;;;;;23.88;13.98;;;30.90;99.90;;;;;;5013877;28;20497;-62
2022/10/19 03:35:24;;;;;;;23.63;12.43;;;30.90;99.90;;;;;;5014535;28;20034;-63
2022/10/19 03:37:50;;;;;;;13.30;7.70;;;31.00;99.90;;;;;;5014333;28;20025;-61
2022/10/19 03:40:17;;;;;;;15.75;7.50;;;31.00;99.90;;;;;;5013812;28;20050;-61
2022/10/19 03:42:43;;;;;;;14.38;8.73;;;30.90;99.90;;;;;;5013715;28;20024;-63
2022/10/19 03:45:10;;;;;;;10.35;7.28;;;30.90;99.90;;;;;;5013754;28;20060;-62
2022/10/19 03:47:36;;;;;;;16.02;8.50;;;30.90;99.90;;;;;;5015221;28;20390;-60
2022/10/19 03:50:04;;;;;;;13.60;7.82;;;30.80;99.90;;;;;;5023070;28;20057;-62
2022/10/19 03:52:31;;;;;;;10.13;6.53;;;30.70;99.90;;;;;;5013650;28;20026;-61
2022/10/19 03:54:57;;;;;;;11.02;7.20;;;30.70;99.90;;;;;;5013575;28;20472;-59
2022/10/19 03:57:24;;;;;;;13.48;6.38;;;30.70;99.90;;;;;;5013546;28;20025;-58
2022/10/19 03:59:50;;;;;;;17.38;7.97;;;30.80;99.90;;;;;;5014113;28;20100;-59
2022/10/19 04:02:17;;;;;;;15.43;7.20;;;30.90;99.90;;;;;;5013864;28;20145;-66
2022/10/19 04:04:43;;;;;;;7.28;5.10;;;31.00;99.90;;;;;;5013182;28;20029;-61
2022/10/19 04:07:10;;;;;;;8.30;5.53;;;31.00;99.90;;;;;;5013537;28;20033;-62
2022/10/19 04:09:36;;;;;;;7.93;5.82;;;31.00;99.90;;;;;;5013514;28;20018;-62
2022/10/19 04:12:03;;;;;;;13.43;7.93;;;31.00;99.90;;;;;;5013270;28;20111;-62
2022/10/19 04:14:29;;;;;;;11.40;6.60;;;30.90;99.90;;;;;;5013388;28;20022;-64
2022/10/19 04:16:56;;;;;;;8.30;5.80;;;30.80;99.90;;;;;;5013493;28;20022;-58
2022/10/19 04:19:22;;;;;;;11.35;5.65;;;30.70;99.90;;;;;;5013222;28;20395;-63
2022/10/19 04:21:49;;;;;;;7.82;5.82;;;30.70;99.90;;;;;;5015922;28;20026;-60
2022/10/19 04:24:18;;;;;;;9.02;6.05;;;30.70;99.90;;;;;;5029073;28;20376;-63
2022/10/19 04:26:50;;;;;;;7.70;5.53;;;30.70;99.90;;;;;;5017022;28;20375;-62
2022/10/19 04:29:19;;;;;;;12.02;6.63;;;30.60;99.90;;;;;;5017398;28;20021;-57
2022/10/19 04:31:49;;;;;;;7.35;5.53;;;30.50;99.90;;;;;;5017357;28;20030;-62
2022/10/19 04:34:16;;;;;;;9.80;6.55;;;30.50;99.90;;;;;;5017011;28;20113;-62
2022/10/19 04:36:42;;;;;;;12.93;6.00;;;30.60;99.90;;;;;;5017324;28;20018;-63
2022/10/19 04:39:09;;;;;;;7.13;5.82;;;30.60;99.90;;;;;;5017190;28;20017;-62
2022/10/19 04:41:37;;;;;;;10.23;6.50;;;30.60;99.90;;;;;;5016959;28;20033;-65
2022/10/19 04:44:06;;;;;;;8.88;6.18;;;30.50;99.90;;;;;;5017560;28;20053;-61
2022/10/19 04:46:32;;;;;;;15.40;10.00;;;30.50;99.90;;;;;;5018749;28;20041;-61
2022/10/19 04:48:59;;;;;;;14.90;10.82;;;30.50;99.90;;;;;;5025356;28;20352;-59
2022/10/19 04:51:26;;;;;;;29.83;18.80;;;30.50;99.90;;;;;;5034472;28;20039;-59
2022/10/19 04:53:55;;;;;;;20.80;12.80;;;30.50;99.90;;;;;;5034136;28;20036;-63
2022/10/19 04:56:25;;;;;;;9.90;7.20;;;30.60;99.90;;;;;;5007126;28;20512;-58
2022/10/19 04:58:56;;;;;;;11.70;6.35;;;30.60;99.90;;;;;;5024721;28;20444;-61
2022/10/19 05:01:24;;;;;;;11.88;7.60;;;30.60;99.90;;;;;;5027586;28;20030;-63
2022/10/19 05:03:54;;;;;;;24.90;15.32;;;30.60;99.90;;;;;;5028913;28;20072;-60
2022/10/19 05:06:21;;;;;;;12.75;8.60;;;30.70;99.90;;;;;;5024737;28;20034;-61
2022/10/19 05:08:50;;;;;;;15.20;9.02;;;30.90;99.90;;;;;;5029788;28;20493;-60
2022/10/19 05:11:18;;;;;;;7.75;6.03;;;31.00;99.90;;;;;;5030668;28;20467;-58
2022/10/19 05:13:45;;;;;;;13.88;7.82;;;31.10;99.90;;;;;;5027880;28;20022;-59
2022/10/19 05:16:15;;;;;;;9.70;5.82;;;31.00;99.90;;;;;;5024904;28;20037;-57
2022/10/19 05:18:41;;;;;;;10.10;6.47;;;31.20;99.90;;;;;;5025109;28;20047;-59
2022/10/19 05:21:10;;;;;;;11.25;6.75;;;31.20;99.90;;;;;;5025491;28;20039;-57
2022/10/19 05:23:38;;;;;;;10.95;6.78;;;31.40;99.90;;;;;;5026419;28;20037;-59
2022/10/19 05:26:08;;;;;;;12.13;7.55;;;31.30;99.90;;;;;;5025382;28;20033;-63
2022/10/19 05:28:35;;;;;;;14.48;8.82;;;31.40;99.90;;;;;;5024335;28;20022;-57
2022/10/19 05:31:07;;;;;;;10.05;7.90;;;31.20;99.90;;;;;;5026065;28;20037;-59
2022/10/19 05:33:34;;;;;;;8.93;7.47;;;31.10;99.90;;;;;;5021657;28;20167;-63
2022/10/19 05:36:12;;;;;;;13.05;7.78;;;31.20;99.90;;;;;;5023421;28;20072;-54
2022/10/19 05:38:38;;;;;;;15.45;8.77;;;31.40;99.90;;;;;;5025610;28;20052;-58
2022/10/19 05:41:05;;;;;;;11.88;9.57;;;31.50;99.90;;;;;;5027303;28;20028;-62
2022/10/19 05:43:32;;;;;;;17.17;11.60;;;31.50;99.90;;;;;;5026078;28;20029;-58
2022/10/19 05:46:04;;;;;;;12.73;9.23;;;31.60;99.90;;;;;;5026651;28;20058;-57
2022/10/19 05:48:32;;;;;;;;;;;31.70;99.90;;;;;;5022395;28;20026;-57
2022/10/19 05:51:00;;;;;;;15.80;11.93;;;31.70;99.90;;;;;;5025342;28;19909;-55
2022/10/19 05:53:28;;;;;;;16.30;12.23;;;31.70;99.90;;;;;;5025905;28;20020;-54
2022/10/19 05:55:55;;;;;;;19.30;12.05;;;31.60;99.90;;;;;;5025760;28;20026;-54
2022/10/19 05:58:22;;;;;;;16.17;12.50;;;31.70;99.90;;;;;;5024941;28;20014;-58
2022/10/19 06:00:52;;;;;;;28.80;20.15;;;31.90;99.90;;;;;;5024817;28;20040;-64
2022/10/19 06:03:20;;;;;;;17.17;12.32;;;31.80;99.90;;;;;;5024033;28;20018;-56
2022/10/19 06:05:48;;;;;;;28.17;23.60;;;31.90;99.90;;;;;;5024511;28;20025;-57
2022/10/19 06:08:16;;;;;;;40.67;31.63;;;31.90;99.90;;;;;;5025905;28;20033;-59
2022/10/19 06:10:43;;;;;;;16.13;11.93;;;31.90;99.90;;;;;;5024321;28;20044;-57
2022/10/19 06:13:10;;;;;;;18.10;13.90;;;31.90;99.90;;;;;;5023370;28;20033;-57
2022/10/19 06:15:39;;;;;;;21.38;16.50;;;31.80;99.90;;;;;;5025534;28;20021;-58
2022/10/19 06:18:11;;;;;;;15.98;12.40;;;31.80;99.90;;;;;;5024123;28;20018;-56
2022/10/19 06:20:41;;;;;;;31.13;20.98;;;31.80;99.90;;;;;;5023068;28;20022;-65
2022/10/19 06:23:08;;;;;;;30.70;22.77;;;31.80;99.90;;;;;;5023793;28;20062;-55
2022/10/19 06:25:35;;;;;;;34.17;21.52;;;31.80;99.90;;;;;;5024859;28;20021;-56
2022/10/19 06:28:03;;;;;;;15.77;13.00;;;31.90;99.90;;;;;;5026232;28;20086;-62
2022/10/19 06:30:30;;;;;;;15.13;11.73;;;31.90;99.90;;;;;;5028442;28;20024;-58
2022/10/19 06:32:58;;;;;;;12.80;10.25;;;32.00;99.90;;;;;;5025874;28;20462;-59
2022/10/19 06:35:25;;;;;;;19.83;11.50;;;32.00;99.90;;;;;;5024820;28;20101;-58
2022/10/19 06:37:51;;;;;;;11.80;10.23;;;31.90;99.90;;;;;;5024320;28;20025;-58
2022/10/19 06:40:18;;;;;;;14.23;10.50;;;31.90;99.90;;;;;;5025813;28;20092;-60
2022/10/19 06:42:44;;;;;;;25.88;15.48;;;32.00;99.90;;;;;;5024855;28;20072;-59
2022/10/19 06:45:11;;;;;;;23.20;11.68;;;31.90;99.90;;;;;;5023471;28;20069;-56
2022/10/19 06:47:37;;;;;;;22.10;16.63;;;32.00;99.90;;;;;;5023402;28;20056;-56
2022/10/19 06:50:05;;;;;;;15.57;10.38;;;32.10;99.90;;;;;;5024423;28;20025;-55
2022/10/19 06:52:33;;;;;;;14.18;9.18;;;32.20;99.90;;;;;;5021720;28;20068;-57
2022/10/19 06:54:59;;;;;;;15.43;9.52;;;32.20;99.90;;;;;;5023324;28;20109;-55
2022/10/19 06:57:27;;;;;;;15.35;10.43;;;32.20;99.90;;;;;;5024479;28;20029;-57
2022/10/19 06:59:54;;;;;;;9.73;7.93;;;32.30;99.90;;;;;;5023028;28;20010;-54
2022/10/19 07:02:21;;;;;;;18.10;11.50;;;32.30;99.90;;;;;;5023320;28;20024;-55
2022/10/19 07:04:47;;;;;;;20.80;11.80;;;32.30;99.90;;;;;;5024396;28;20024;-56
2022/10/19 07:07:14;;;;;;;13.55;9.00;;;32.40;99.90;;;;;;5022872;28;20026;-57
2022/10/19 07:09:40;;;;;;;13.00;9.00;;;32.30;99.90;;;;;;5023218;28;20049;-58
2022/10/19 07:12:09;;;;;;;21.08;12.57;;;32.30;99.90;;;;;;5024080;28;20017;-56
2022/10/19 07:14:38;;;;;;;20.45;12.50;;;32.30;99.90;;;;;;5022801;28;20033;-56
2022/10/19 07:17:09;;;;;;;18.38;11.75;;;32.30;99.90;;;;;;5022439;28;20036;-52
2022/10/19 07:19:35;;;;;;;20.10;13.57;;;32.30;99.90;;;;;;5022923;28;20026;-56
2022/10/19 07:22:02;;;;;;;21.20;13.38;;;32.30;99.90;;;;;;5022727;28;20021;-62
2022/10/19 07:24:29;;;;;;;23.23;9.88;;;32.20;99.90;;;;;;5021558;28;20093;-56
2022/10/19 07:26:57;;;;;;;23.75;15.10;;;32.20;99.90;;;;;;5014461;28;20028;-57
2022/10/19 07:29:23;;;;;;;111.82;71.63;;;32.30;99.60;;;;;;5014238;28;20038;-57
2022/10/19 07:31:50;;;;;;;26.83;19.60;;;32.20;99.10;;;;;;5014428;28;20478;-59
2022/10/19 07:34:16;;;;;;;15.63;8.95;;;32.20;99.90;;;;;;5014095;28;20026;-62
2022/10/19 07:36:46;;;;;;;17.55;10.85;;;32.20;99.90;;;;;;5014183;28;20053;-56
2022/10/19 07:39:15;;;;;;;18.95;12.63;;;32.20;99.90;;;;;;5013867;28;20036;-59
2022/10/19 07:41:43;;;;;;;13.40;10.57;;;32.30;99.90;;;;;;5014281;28;20026;-57
2022/10/19 07:44:10;;;;;;;20.33;11.55;;;32.40;99.90;;;;;;5013763;28;20037;-58
2022/10/19 07:46:38;;;;;;;13.93;10.23;;;32.40;99.90;;;;;;5016473;28;20029;-55
2022/10/19 07:49:09;;;;;;;14.02;11.30;;;32.40;99.90;;;;;;5022420;28;20440;-56
2022/10/19 07:51:37;;;;;;;16.25;12.25;;;32.40;99.90;;;;;;5028801;28;20101;-57
2022/10/19 07:54:04;;;;;;;22.75;13.73;;;32.30;99.90;;;;;;5018697;28;20033;-56
2022/10/19 07:56:31;;;;;;;17.15;12.63;;;32.20;99.90;;;;;;5030747;28;20021;-55
2022/10/19 07:58:59;;;;;;;21.52;11.65;;;32.20;99.90;;;;;;5031214;28;20014;-58
2022/10/19 08:01:29;;;;;;;15.05;11.27;;;32.20;99.90;;;;;;5021071;28;20041;-56
2022/10/19 08:03:57;;;;;;;14.63;10.65;;;32.30;99.90;;;;;;5024725;28;20037;-61
2022/10/19 08:06:24;;;;;;;24.20;14.10;;;32.30;99.90;;;;;;5025794;28;20111;-58
2022/10/19 08:08:52;;;;;;;17.08;12.40;;;32.30;99.90;;;;;;5016271;28;20386;-60
2022/10/19 08:11:23;;;;;;;24.45;11.95;;;32.30;99.90;;;;;;5015605;28;20089;-58
2022/10/19 08:13:50;;;;;;;17.20;11.18;;;32.40;99.90;;;;;;5023709;28;20029;-59
2022/10/19 08:16:22;;;;;;;13.27;10.68;;;32.20;99.90;;;;;;5025159;28;20104;-56
2022/10/19 08:18:50;;;;;;;18.17;10.75;;;32.30;99.90;;;;;;5027917;28;20481;-60
2022/10/19 08:21:17;;;;;;;16.50;11.85;;;32.20;99.90;;;;;;5024603;28;20022;-59
2022/10/19 08:23:43;;;;;;;13.85;11.40;;;32.20;99.90;;;;;;5022852;28;20072;-59
2022/10/19 08:26:10;;;;;;;18.00;13.57;;;32.30;99.90;;;;;;5023358;28;20022;-60
2022/10/19 08:28:36;;;;;;;21.58;14.02;;;32.30;99.90;;;;;;5023917;28;20033;-60
2022/10/19 08:31:08;;;;;;;22.05;14.90;;;32.30;99.90;;;;;;5021864;28;20106;-60
2022/10/19 08:33:35;;;;;;;23.70;15.70;;;32.30;99.90;;;;;;5022721;28;20040;-63
2022/10/19 08:36:05;;;;;;;18.67;13.00;;;32.30;99.90;;;;;;5023388;28;20078;-58
2022/10/19 08:38:31;;;;;;;14.02;10.63;;;32.40;99.90;;;;;;5026484;28;20087;-61
2022/10/19 08:41:03;;;;;;;21.45;13.00;;;32.20;99.90;;;;;;5024037;28;20025;-59
2022/10/19 08:43:36;;;;;;;19.92;13.15;;;32.30;99.90;;;;;;5033002;28;20032;-59
2022/10/19 08:46:14;;;;;;;16.27;11.57;;;32.20;99.90;;;;;;5032777;28;20049;-60
2022/10/19 08:48:42;;;;;;;18.65;13.00;;;32.30;99.90;;;;;;5031034;28;20036;-61
2022/10/19 08:51:12;;;;;;;19.25;12.40;;;32.30;99.90;;;;;;5019050;28;20030;-61
2022/10/19 08:53:51;;;;;;;27.88;18.58;;;32.20;99.90;;;;;;5022384;28;20043;-59
2022/10/19 08:56:24;;;;;;;29.58;19.23;;;32.20;99.90;;;;;;5013094;28;20129;-60
2022/10/19 08:58:59;;;;;;;26.77;15.32;;;32.00;99.90;;;;;;5013319;28;20440;-60
2022/10/19 09:01:29;;;;;;;21.60;16.17;;;31.90;99.90;;;;;;5012981;28;20391;-62
2022/10/19 09:04:02;;;;;;;23.63;14.35;;;32.00;99.90;;;;;;5013688;28;20060;-57
2022/10/19 09:06:34;;;;;;;20.55;13.32;;;32.00;99.90;;;;;;5013661;28;20022;-60
2022/10/19 09:09:01;;;;;;;23.63;13.68;;;32.00;99.90;;;;;;5016975;28;20482;-61
2022/10/19 09:11:34;;;;;;;22.33;13.27;;;32.00;99.90;;;;;;5025751;28;20068;-57
2022/10/19 09:14:23;;;;;;;22.02;14.02;;;31.90;99.90;;;;;;5025126;28;20085;-56
2022/10/19 09:16:50;;;;;;;19.25;14.00;;;31.90;99.90;;;;;;5021795;28;20070;-58
2022/10/19 09:19:24;;;;;;;20.75;13.88;;;31.80;99.90;;;;;;5016544;28;20029;-59
2022/10/19 09:22:06;;;;;;;20.05;12.23;;;31.80;99.90;;;;;;5016874;28;20034;-56
2022/10/19 09:24:42;;;;;;;22.60;14.80;;;31.70;99.90;;;;;;5016346;28;20061;-57
2022/10/19 09:27:22;;;;;;;25.50;15.55;;;31.70;99.90;;;;;;5017022;28;20056;-60
2022/10/19 09:29:54;;;;;;;27.27;17.88;;;31.70;99.90;;;;;;5016282;28;20382;-58
2022/10/19 09:32:24;;;;;;;;;;;31.80;99.90;;;;;;5016868;28;20470;-58
2022/10/19 09:34:54;;;;;;;36.05;18.80;;;31.70;99.90;;;;;;5016432;28;20370;-57
2022/10/19 09:37:22;;;;;;;33.33;19.80;;;31.70;99.90;;;;;;5016159;28;20022;-57
2022/10/19 09:39:48;;;;;;;37.28;21.90;;;31.70;99.90;;;;;;5016395;28;20029;-55
2022/10/19 09:42:20;;;;;;;45.83;23.58;;;31.70;99.90;;;;;;5016311;28;20108;-58
2022/10/19 09:44:49;;;;;;;44.92;23.30;;;31.70;99.90;;;;;;5016126;28;20045;-57
2022/10/19 09:47:17;;;;;;;50.55;24.42;;;31.70;99.90;;;;;;5026504;28;20034;-58
2022/10/19 09:49:46;;;;;;;43.15;22.85;;;31.70;99.90;;;;;;5025294;28;20026;-58
2022/10/19 09:52:35;;;;;;;40.22;21.65;;;31.70;99.90;;;;;;5021607;28;20030;-56
2022/10/19 09:55:06;;;;;;;38.78;20.67;;;31.80;99.90;;;;;;5026529;28;20151;-57
2022/10/19 09:57:40;;;;;;;51.00;24.60;;;31.70;99.90;;;;;;5025459;28;20014;-57
2022/10/19 10:00:16;;;;;;;45.55;25.77;;;31.60;99.90;;;;;;5027643;28;20530;-58
2022/10/19 10:02:49;;;;;;;281.83;199.52;;;31.50;99.90;;;;;;5016362;28;20053;-58
2022/10/19 10:05:16;;;;;;;276.20;211.38;;;31.60;99.90;;;;;;5023617;28;20390;-60
2022/10/19 10:07:43;;;;;;;443.05;366.73;;;31.60;99.90;;;;;;5024317;28;20022;-58
2022/10/19 10:10:23;;;;;;;250.02;181.63;;;31.70;99.90;;;;;;5024172;28;20025;-67
2022/10/19 10:12:52;;;;;;;394.13;303.00;;;31.70;99.90;;;;;;5025586;28;20018;-56
2022/10/19 10:15:25;;;;;;;342.05;257.45;;;31.60;99.90;;;;;;5024542;28;20025;-59
2022/10/19 10:17:52;;;;;;;143.85;96.30;;;31.60;99.90;;;;;;5023697;28;20064;-57
2022/10/19 10:20:20;;;;;;;76.35;43.70;;;31.60;99.90;;;;;;5024294;28;20026;-62
2022/10/19 10:22:51;;;;;;;65.78;39.33;;;31.60;99.90;;;;;;5025903;28;20097;-57
2022/10/19 10:25:18;;;;;;;60.33;37.40;;;31.70;99.90;;;;;;5028027;28;20389;-59
2022/10/19 10:27:56;;;;;;;72.88;43.42;;;31.60;99.90;;;;;;5035224;28;20031;-59
2022/10/19 10:30:22;;;;;;;69.15;39.92;;;31.60;99.90;;;;;;5035232;28;20048;-60
2022/10/19 10:32:52;;;;;;;64.03;37.17;;;31.60;99.90;;;;;;5035249;28;20049;-57
2022/10/19 10:35:30;;;;;;;63.40;36.95;;;31.50;99.90;;;;;;5035513;28;20042;-58
2022/10/19 10:38:05;;;;;;;50.45;28.83;;;31.30;99.90;;;;;;5034544;28;20033;-58
2022/10/19 10:40:32;;;;;;;44.22;27.88;;;30.80;99.90;;;;;;5028788;28;20033;-57
2022/10/19 10:43:14;;;;;;;51.33;30.65;;;30.60;99.90;;;;;;5026209;28;20028;-59
2022/10/19 10:45:45;;;;;;;39.58;27.85;;;30.20;99.90;;;;;;5024951;28;20048;-59
2022/10/19 10:48:17;;;;;;;44.85;26.67;;;30.20;99.90;;;;;;5030536;28;20359;-58
2022/10/19 10:50:44;;;;;;;43.92;28.73;;;30.20;99.90;;;;;;5026089;28;20025;-61
2022/10/19 10:53:31;;;;;;;57.17;37.10;;;30.20;99.90;;;;;;5027511;28;20033;-61
2022/10/19 10:55:57;;;;;;;47.42;31.70;;;30.10;99.90;;;;;;5024683;28;20026;-59
2022/10/19 10:58:42;;;;;;;63.50;38.95;;;30.10;99.90;;;;;;5032124;28;20112;-60
2022/10/19 11:01:19;;;;;;;58.85;37.40;;;30.10;99.90;;;;;;5027527;28;20101;-59
2022/10/19 11:04:10;;;;;;;63.30;38.30;;;30.00;99.90;;;;;;5025173;28;20033;-59
2022/10/19 11:06:42;;;;;;;59.38;34.70;;;30.00;99.90;;;;;;5006368;28;20360;-61
2022/10/19 11:09:22;;;;;;;47.00;28.50;;;30.00;99.90;;;;;;5023057;28;20033;-58
2022/10/19 11:11:54;;;;;;;50.17;29.05;;;29.90;99.90;;;;;;5022971;28;20037;-59
2022/10/19 11:14:26;;;;;;;42.63;27.90;;;29.90;99.90;;;;;;5027741;28;20129;-59
2022/10/19 11:16:55;;;;;;;43.92;27.70;;;29.70;99.90;;;;;;5024324;28;20113;-60
2022/10/19 11:19:28;;;;;;;105.00;62.15;;;29.70;99.90;;;;;;5023994;28;20026;-61
2022/10/19 11:22:03;;;;;;;99.00;53.85;;;29.30;99.90;;;;;;5022688;28;20026;-61
2022/10/19 11:24:33;;;;;;;80.10;43.55;;;29.10;99.90;;;;;;5022734;28;20026;-63
2022/10/19 11:27:11;;;;;;;96.72;50.03;;;29.10;99.90;;;;;;5024917;28;20083;-59
2022/10/19 11:29:41;;;;;;;43.85;26.85;;;28.70;99.90;;;;;;5022975;28;20460;-62
2022/10/19 11:32:30;;;;;;;35.30;20.90;;;28.40;99.90;;;;;;5021552;28;20034;-60
2022/10/19 11:35:04;;;;;;;36.42;24.10;;;28.50;99.90;;;;;;5017617;28;20044;-61
2022/10/19 11:37:35;;;;;;;47.30;29.75;;;28.50;99.90;;;;;;5026424;28;20021;-59
2022/10/19 11:40:04;;;;;;;88.95;52.80;;;28.30;99.90;;;;;;5026870;28;20022;-59
2022/10/19 11:42:43;;;;;;;81.47;51.10;;;28.00;99.90;;;;;;5025720;28;20057;-61
2022/10/19 11:45:13;;;;;;;88.45;57.20;;;27.70;99.90;;;;;;5025386;28;20053;-57
2022/10/19 11:47:42;;;;;;;62.22;39.33;;;27.70;99.90;;;;;;5020040;28;20040;-60
2022/10/19 11:50:19;;;;;;;121.72;72.88;;;27.60;99.90;;;;;;5023159;28;20495;-59
2022/10/19 11:52:47;;;;;;;83.25;52.05;;;27.60;99.90;;;;;;5023668;28;20105;-60
2022/10/19 11:55:20;;;;;;;65.78;37.35;;;27.90;99.90;;;;;;5015821;28;20042;-57
2022/10/19 11:57:54;;;;;;;49.72;27.50;;;27.90;99.90;;;;;;5018360;28;20022;-60
2022/10/19 12:00:21;;;;;;;39.97;25.77;;;28.10;99.90;;;;;;5023220;28;20080;-65
2022/10/19 12:02:57;;;;;;;44.03;28.10;;;28.30;99.90;;;;;;5021782;28;20386;-57
2022/10/19 12:05:31;;;;;;;74.07;41.10;;;28.20;99.90;;;;;;5022328;28;20041;-62
2022/10/19 12:08:02;;;;;;;61.45;34.72;;;28.20;99.90;;;;;;5024129;28;20030;-59
2022/10/19 12:10:36;;;;;;;57.20;36.05;;;28.30;99.90;;;;;;5026793;28;20382;-61
2022/10/19 12:13:07;;;;;;;42.50;24.40;;;28.30;99.90;;;;;;5019983;28;20284;-56
2022/10/19 12:15:38;;;;;;;33.45;23.40;;;28.30;99.90;;;;;;5025033;28;20029;-56
2022/10/19 12:18:22;;;;;;;34.33;22.73;;;28.30;99.90;;;;;;5025874;28;20029;-59
2022/10/19 12:20:52;;;;;;;32.83;22.95;;;28.30;99.90;;;;;;5014166;28;20028;-61
2022/10/19 12:23:24;;;;;;;33.95;20.83;;;28.30;99.90;;;;;;5013281;28;20030;-63
2022/10/19 12:25:54;;;;;;;55.58;31.75;;;28.30;99.90;;;;;;5013478;28;20025;-61
2022/10/19 12:28:27;;;;;;;33.20;20.90;;;28.30;99.90;;;;;;5013836;28;20045;-62
2022/10/19 12:30:54;;;;;;;48.83;29.08;;;28.30;99.90;;;;;;5013289;28;20077;-65
2022/10/19 12:33:26;;;;;;;44.38;26.05;;;28.20;99.90;;;;;;5013327;28;20463;-61
2022/10/19 12:36:02;;;;;;;49.03;29.63;;;28.30;99.90;;;;;;5013487;28;20144;-61
2022/10/19 12:38:40;;;;;;;46.65;27.10;;;28.10;99.90;;;;;;5014063;28;20029;-59
2022/10/19 12:41:22;;;;;;;52.10;30.92;;;28.20;99.90;;;;;;5013636;28;20026;-61
2022/10/19 12:43:56;;;;;;;47.70;27.73;;;28.10;99.90;;;;;;5017164;28;20382;-65
2022/10/19 12:46:26;;;;;;;36.80;22.67;;;28.20;99.90;;;;;;5017254;28;20113;-61